Terminal Aerodrome Forecast
Issued by NWS Lubbock, TX

Home | Current Version | Previous Version | Text Only | Print | Product List | Glossary On
Versions: 1 2 3 4 5 6 7 8 9 10 11 12 13 14 15 16 17
000
FTUS44 KLUB 290520
TAFLBB
TAF
KLBB 290520Z 2906/3006 01016G24KT P6SM SHRA SCT080 BKN100 OVC250
      TEMPO 2906/2908 -TSRA SCT015 BKN080CB
     FM290800 01019G28KT P6SM -SHRA SCT007 OVC015=

USA.gov is the U.S. government's official web portal to all federal, state and local government web resources and services.